createdAt,value
2022-11-18T00:04:40.383Z,1.67
2022-11-18T00:09:42.433Z,1.37
2022-11-18T00:14:44.845Z,1.90
2022-11-18T00:19:46.976Z,1.90
2022-11-18T00:24:49.000Z,1.20
2022-11-18T00:29:51.012Z,1.57
2022-11-18T00:34:53.075Z,1.20
2022-11-18T00:39:55.047Z,0.98
2022-11-18T00:44:57.094Z,2.25
2022-11-18T00:49:59.095Z,2.10
2022-11-18T00:55:01.107Z,1.30
2022-11-18T01:00:04.290Z,1.17
2022-11-18T01:05:06.627Z,1.90
2022-11-18T01:10:09.100Z,1.60
2022-11-18T01:15:11.181Z,1.90
2022-11-18T01:20:14.240Z,2.08
2022-11-18T01:25:16.442Z,2.10
2022-11-18T01:30:18.556Z,1.80
2022-11-18T01:35:20.996Z,2.55
2022-11-18T01:40:23.155Z,2.33
2022-11-18T01:45:31.585Z,1.87
2022-11-18T01:50:44.291Z,2.55
2022-11-18T01:55:48.857Z,2.20
2022-11-18T02:00:50.928Z,2.15
2022-11-18T02:05:54.927Z,2.62
2022-11-18T02:10:56.998Z,3.50
2022-11-18T02:16:21.977Z,2.37
2022-11-18T02:21:44.812Z,2.40
2022-11-18T02:27:04.077Z,3.03
2022-11-18T02:32:33.850Z,7.95
2022-11-18T02:37:49.965Z,7.45
2022-11-18T02:42:58.255Z,6.80
2022-11-18T02:48:05.620Z,4.30
2022-11-18T02:53:10.250Z,3.35
2022-11-18T02:58:14.736Z,2.60
2022-11-18T03:03:34.811Z,2.80
2022-11-18T03:08:47.357Z,2.85
2022-11-18T03:14:03.198Z,2.53
2022-11-18T03:19:27.541Z,2.35
2022-11-18T03:24:33.299Z,2.05
2022-11-18T03:29:40.723Z,2.40
2022-11-18T03:34:59.416Z,2.10
2022-11-18T03:40:12.560Z,2.50
2022-11-18T03:45:22.540Z,2.03
2022-11-18T03:50:35.898Z,2.00
2022-11-18T03:55:41.915Z,1.80
2022-11-18T04:00:48.376Z,1.95
2022-11-18T04:05:55.007Z,2.55
2022-11-18T04:11:34.887Z,1.60
2022-11-18T04:16:45.288Z,2.35
2022-11-18T04:21:48.726Z,2.00
2022-11-18T04:26:50.751Z,2.00
2022-11-18T04:31:52.846Z,2.05
2022-11-18T04:36:55.382Z,1.12
2022-11-18T04:41:57.525Z,0.62
2022-11-18T04:47:03.667Z,0.60
2022-11-18T04:52:06.315Z,0.35
2022-11-18T04:57:08.640Z,0.20
2022-11-18T05:02:10.707Z,0.43
2022-11-18T05:07:15.374Z,0.20
2022-11-18T05:12:36.764Z,0.30
2022-11-18T05:17:39.307Z,0.25
2022-11-18T05:22:42.115Z,0.30
2022-11-18T05:27:44.163Z,0.50
2022-11-18T05:32:47.994Z,0.10
2022-11-18T05:37:50.536Z,0.10
2022-11-18T05:43:10.977Z,0.00
2022-11-18T05:48:13.108Z,0.10
2022-11-18T05:53:17.160Z,0.40
2022-11-18T05:58:19.317Z,0.10
2022-11-18T06:03:30.981Z,0.20
2022-11-18T06:08:42.068Z,0.00
2022-11-18T06:13:50.639Z,0.00
2022-11-18T06:18:52.856Z,0.00
2022-11-18T06:23:55.290Z,0.00
2022-11-18T06:28:57.615Z,0.22
2022-11-18T06:33:59.652Z,0.15
2022-11-18T06:39:05.958Z,0.10
2022-11-18T06:44:08.159Z,0.10
2022-11-18T06:49:10.198Z,0.00
2022-11-18T06:54:12.445Z,0.22
2022-11-18T06:59:14.935Z,0.10
2022-11-18T07:09:19.569Z,0.10
2022-11-18T07:19:24.064Z,0.30
2022-11-18T07:24:26.056Z,0.15
2022-11-18T07:29:28.098Z,0.60
2022-11-18T07:34:30.115Z,0.30
2022-11-18T07:39:32.195Z,0.40
2022-11-18T07:44:34.179Z,0.30
2022-11-18T07:49:36.225Z,0.33
2022-11-18T07:54:38.357Z,0.45
2022-11-18T07:59:40.505Z,0.43
2022-11-18T08:04:42.551Z,0.80
2022-11-18T08:09:44.651Z,1.87
2022-11-18T08:14:46.705Z,0.90
2022-11-18T08:19:48.755Z,1.48
2022-11-18T08:24:50.818Z,0.40
2022-11-18T08:29:52.868Z,0.43
2022-11-18T08:34:54.948Z,1.95
2022-11-18T08:39:57.420Z,1.17
2022-11-18T08:45:00.180Z,0.82
2022-11-18T08:55:06.035Z,0.65
2022-11-18T09:00:08.800Z,0.40
2022-11-18T09:05:10.839Z,1.00
2022-11-18T09:10:12.920Z,0.70
2022-11-18T09:15:15.463Z,0.60
2022-11-18T09:25:20.082Z,0.90
2022-11-18T09:30:22.274Z,0.50
2022-11-18T09:35:24.342Z,0.80
2022-11-18T09:40:27.728Z,0.98
2022-11-18T09:45:38.420Z,0.97
2022-11-18T09:50:55.749Z,1.00
2022-11-18T09:55:58.335Z,0.83
2022-11-18T10:01:01.577Z,0.90
2022-11-18T10:06:23.103Z,0.70
2022-11-18T10:11:33.560Z,0.87
2022-11-18T10:17:05.448Z,0.97
2022-11-18T10:22:24.690Z,0.97
2022-11-18T10:27:38.314Z,1.03
2022-11-18T10:38:27.785Z,0.93
2022-11-18T10:43:51.510Z,1.00
2022-11-18T10:54:17.919Z,0.87
2022-11-18T10:59:29.434Z,0.60
2022-11-18T11:04:31.696Z,0.77
2022-11-18T11:09:35.538Z,0.85
2022-11-18T11:14:57.833Z,0.70
2022-11-18T11:20:21.242Z,0.75
2022-11-18T11:25:29.149Z,1.00
2022-11-18T11:30:40.789Z,0.70
2022-11-18T11:36:22.973Z,0.50
2022-11-18T11:41:50.863Z,1.23
2022-11-18T11:47:26.581Z,0.85
2022-11-18T11:52:56.610Z,0.90
2022-11-18T11:58:37.994Z,0.68
2022-11-18T12:03:48.660Z,0.60
2022-11-18T12:09:18.913Z,0.47
2022-11-18T12:14:47.401Z,0.85
2022-11-18T12:19:49.543Z,0.70
2022-11-18T12:24:51.695Z,0.70
2022-11-18T12:29:59.860Z,0.68
2022-11-18T12:35:13.852Z,0.70
2022-11-18T12:40:31.688Z,0.62
2022-11-18T12:45:45.818Z,0.35
2022-11-18T12:50:52.923Z,0.60
2022-11-18T12:55:55.848Z,0.55
2022-11-18T13:01:10.897Z,0.90
2022-11-18T13:06:24.289Z,1.10
2022-11-18T13:11:45.296Z,0.73
2022-11-18T13:17:07.398Z,1.50
2022-11-18T13:22:36.586Z,1.17
2022-11-18T13:27:50.853Z,1.35
2022-11-18T13:32:57.655Z,0.60
2022-11-18T13:38:02.451Z,1.35
2022-11-18T13:43:04.971Z,1.10
2022-11-18T13:48:09.192Z,1.17
2022-11-18T13:53:41.069Z,1.27
2022-11-18T13:59:15.510Z,0.70
2022-11-18T14:04:25.258Z,1.23
2022-11-18T14:09:29.653Z,0.85
2022-11-18T14:14:34.933Z,1.40
2022-11-18T14:19:37.533Z,1.00
2022-11-18T14:24:40.259Z,1.10
2022-11-18T14:29:50.352Z,1.83
2022-11-18T14:35:01.883Z,1.60
2022-11-18T14:40:05.645Z,2.60
2022-11-18T14:45:07.830Z,2.87
2022-11-18T14:50:14.542Z,1.92
2022-11-18T14:55:16.555Z,4.07
2022-11-18T15:00:19.584Z,3.37
2022-11-18T15:05:21.642Z,1.10
2022-11-18T15:10:23.850Z,1.02
2022-11-18T15:15:26.010Z,5.53
2022-11-18T15:20:28.092Z,1.58
2022-11-18T15:25:30.202Z,1.75
2022-11-18T15:30:32.218Z,3.95
2022-11-18T15:35:34.312Z,9.57
2022-11-18T15:40:36.793Z,2.50
2022-11-18T15:45:39.246Z,1.02
2022-11-18T15:50:41.302Z,1.45
2022-11-18T15:55:43.413Z,1.30
2022-11-18T16:00:45.530Z,1.90
2022-11-18T16:05:47.705Z,1.45
2022-11-18T16:11:14.046Z,1.40
2022-11-18T16:16:25.154Z,0.70
2022-11-18T16:21:29.361Z,0.83
2022-11-18T16:26:32.465Z,0.80
2022-11-18T16:31:40.822Z,0.73
2022-11-18T16:36:45.127Z,1.13
2022-11-18T16:41:47.183Z,0.80
2022-11-18T16:46:54.612Z,0.93
2022-11-18T16:51:57.574Z,1.07
2022-11-18T16:57:00.047Z,1.23
2022-11-18T17:02:02.914Z,0.73
2022-11-18T17:07:05.773Z,0.60
2022-11-18T17:17:09.952Z,0.90
2022-11-18T17:22:11.972Z,1.33
2022-11-18T17:27:14.021Z,1.47
2022-11-18T17:32:16.558Z,1.80
2022-11-18T17:37:18.579Z,1.45
2022-11-18T17:42:23.185Z,1.67
2022-11-18T17:47:26.199Z,3.60
2022-11-18T17:52:28.262Z,3.05
2022-11-18T17:57:30.274Z,1.40
2022-11-18T18:02:32.322Z,0.90
2022-11-18T18:07:34.875Z,1.55
2022-11-18T18:12:55.366Z,0.98
2022-11-18T18:17:57.550Z,1.75
2022-11-18T18:22:59.689Z,2.22
2022-11-18T18:28:02.383Z,3.12
2022-11-18T18:33:04.446Z,2.30
2022-11-18T18:38:06.637Z,1.70
2022-11-18T18:43:08.682Z,1.37
2022-11-18T18:48:10.734Z,1.12
2022-11-18T18:53:13.168Z,1.63
2022-11-18T18:58:15.651Z,1.42
2022-11-18T19:03:17.662Z,1.10
2022-11-18T19:08:19.667Z,2.33
2022-11-18T19:13:21.685Z,2.30
2022-11-18T19:18:24.145Z,1.43
2022-11-18T19:23:26.730Z,1.87
2022-11-18T19:28:28.743Z,1.30
2022-11-18T19:33:30.808Z,1.20
2022-11-18T19:38:34.762Z,2.33
2022-11-18T19:43:36.852Z,4.20
2022-11-18T19:48:38.920Z,3.37
2022-11-18T19:53:42.145Z,1.98
2022-11-18T19:58:46.384Z,2.35
2022-11-18T20:03:50.729Z,1.45
2022-11-18T20:08:53.635Z,1.83
2022-11-18T20:13:56.846Z,1.23
2022-11-18T20:19:05.014Z,1.35
2022-11-18T20:24:16.059Z,0.63
2022-11-18T20:29:18.846Z,1.07
2022-11-18T20:34:22.139Z,1.40
2022-11-18T20:39:24.300Z,1.20
2022-11-18T20:44:26.351Z,2.58
2022-11-18T20:49:28.441Z,3.03
2022-11-18T20:54:30.517Z,3.05
2022-11-18T20:59:32.557Z,2.67
2022-11-18T21:04:34.607Z,1.53
2022-11-18T21:09:36.651Z,1.10
2022-11-18T21:14:38.694Z,1.70
2022-11-18T21:19:45.803Z,1.92
2022-11-18T21:24:49.505Z,1.75
2022-11-18T21:29:51.553Z,1.77
2022-11-18T21:34:54.085Z,1.80
2022-11-18T21:39:56.125Z,1.37
2022-11-18T21:44:58.584Z,1.58
2022-11-18T21:50:00.579Z,2.03
2022-11-18T21:55:02.863Z,2.10
2022-11-18T22:00:07.685Z,2.05
2022-11-18T22:05:15.095Z,1.90
2022-11-18T22:10:18.791Z,1.85
2022-11-18T22:15:20.942Z,1.50
2022-11-18T22:20:23.054Z,2.28
2022-11-18T22:25:25.496Z,1.67
2022-11-18T22:30:27.527Z,2.10
2022-11-18T22:35:30.594Z,1.40
2022-11-18T22:40:33.103Z,2.05
2022-11-18T22:45:35.251Z,1.52
2022-11-18T22:50:37.313Z,1.35
2022-11-18T22:55:39.420Z,1.20
2022-11-18T23:00:41.898Z,1.50
2022-11-18T23:05:46.467Z,1.27
2022-11-18T23:10:48.706Z,1.90
2022-11-18T23:15:50.806Z,1.85
2022-11-18T23:20:58.763Z,2.20
2022-11-18T23:26:13.605Z,1.00
2022-11-18T23:31:18.637Z,1.75
2022-11-18T23:36:21.527Z,1.40
2022-11-18T23:41:23.962Z,1.07
2022-11-18T23:46:27.461Z,1.55
2022-11-18T23:51:29.525Z,1.25
2022-11-18T23:56:37.564Z,1.45
